createdAt,value
2018-08-13T00:00:17.415Z,80.71
2018-08-13T00:01:17.675Z,80.8
2018-08-13T00:02:17.663Z,79.46
2018-08-13T00:03:17.650Z,80.99
2018-08-13T00:04:17.641Z,79.99
2018-08-13T00:05:17.366Z,80.8
2018-08-13T00:06:17.354Z,80.13
2018-08-13T00:07:17.340Z,79.61
2018-08-13T00:08:17.331Z,79.46
2018-08-13T00:09:17.326Z,79.32
2018-08-13T00:10:17.315Z,78.98
2018-08-13T00:11:17.565Z,78.75
2018-08-13T00:12:17.559Z,78.59
2018-08-13T00:13:17.281Z,79.42
2018-08-13T00:14:17.538Z,81.05
2018-08-13T00:15:17.527Z,79.8
2018-08-13T00:16:17.248Z,79.22
2018-08-13T00:17:17.503Z,79.03
2018-08-13T00:18:17.226Z,78.55
2018-08-13T00:19:17.216Z,78.08
2018-08-13T00:20:17.475Z,78.17
2018-08-13T00:21:17.460Z,78.17
2018-08-13T00:22:17.445Z,78.17
2018-08-13T00:23:17.437Z,78.17
2018-08-13T00:24:17.428Z,77.78
2018-08-13T00:25:17.152Z,77.88
2018-08-13T00:26:17.147Z,78.17
2018-08-13T00:27:17.130Z,78.75
2018-08-13T00:28:17.383Z,77.83
2018-08-13T00:29:17.106Z,78.55
2018-08-13T00:30:17.361Z,79.13
2018-08-13T00:31:17.352Z,80.38
2018-08-13T00:32:17.341Z,81.72
2018-08-13T00:33:17.068Z,83.54
2018-08-13T00:34:17.052Z,82.2
2018-08-13T00:35:17.047Z,82.68
2018-08-13T00:36:17.041Z,83.93
2018-08-13T00:37:17.026Z,82.49
2018-08-13T00:38:17.276Z,81.15
2018-08-13T00:39:17.469Z,80.09
2018-08-13T00:40:17.255Z,80.57
2018-08-13T00:41:16.980Z,81.82
2018-08-13T00:42:17.232Z,81.92
2018-08-13T00:43:17.221Z,82.49
2018-08-13T00:44:16.947Z,83.54
2018-08-13T00:45:16.933Z,85.37
2018-08-13T00:46:17.188Z,84.7
2018-08-13T00:47:16.917Z,85.75
2018-08-13T00:48:16.907Z,86.43
2018-08-13T00:49:16.893Z,84.51
2018-08-13T00:50:17.160Z,83.45
2018-08-13T00:51:17.133Z,82.59
2018-08-13T00:52:17.130Z,82.2
2018-08-13T00:53:16.849Z,82.59
2018-08-13T00:54:17.107Z,82.68
2018-08-13T00:55:17.100Z,85.37
2018-08-13T00:56:17.084Z,87.87
2018-08-13T00:57:17.071Z,90.66
2018-08-13T00:58:16.800Z,90.75
2018-08-13T00:59:16.836Z,89.02
2018-08-13T01:00:16.773Z,90.08
2018-08-13T01:01:17.032Z,90.17
2018-08-13T01:02:17.022Z,90.27
2018-08-13T01:03:17.005Z,91.13
2018-08-13T01:04:17.000Z,90.08
2018-08-13T01:05:16.721Z,88.93
2018-08-13T01:06:16.975Z,88.93
2018-08-13T01:07:16.700Z,88.35
2018-08-13T01:08:16.953Z,92.19
2018-08-13T01:09:16.949Z,92.57
2018-08-13T01:10:16.673Z,90.56
2018-08-13T01:11:16.920Z,90.41
2018-08-13T01:12:16.909Z,88.49
2018-08-13T01:13:16.908Z,86.85
2018-08-13T01:14:16.623Z,86.76
2018-08-13T01:15:16.882Z,87.72
2018-08-13T01:16:16.870Z,88.87
2018-08-13T01:17:16.859Z,90.7
2018-08-13T01:18:16.845Z,88.39
2018-08-13T01:19:16.846Z,87.24
2018-08-13T01:20:16.846Z,88.59
2018-08-13T01:21:16.818Z,87.34
2018-08-13T01:22:16.808Z,86.38
2018-08-13T01:23:16.794Z,85.03
2018-08-13T01:24:16.793Z,84.36
2018-08-13T01:25:16.778Z,85.41
2018-08-13T01:26:16.764Z,85.51
2018-08-13T01:27:16.486Z,84.36
2018-08-13T01:28:16.478Z,85.61
2018-08-13T01:29:16.735Z,85.22
2018-08-13T01:30:16.457Z,84.94
2018-08-13T01:31:16.447Z,84.74
2018-08-13T01:32:16.436Z,86.38
2018-08-13T01:33:16.426Z,86.18
2018-08-13T01:34:16.678Z,84.88
2018-08-13T01:35:16.416Z,84.4
2018-08-13T01:36:16.402Z,86.66
2018-08-13T01:37:16.387Z,84.78
2018-08-13T01:38:16.650Z,84.3
2018-08-13T01:39:16.364Z,84.98
2018-08-13T01:40:16.352Z,84.3
2018-08-13T01:41:16.606Z,84.59
2018-08-13T01:42:16.598Z,83.25
2018-08-13T01:43:16.322Z,82.57
2018-08-13T01:44:16.311Z,82.76
2018-08-13T01:45:16.565Z,83.06
2018-08-13T01:46:16.554Z,83.73
2018-08-13T01:47:16.545Z,83.44
2018-08-13T01:48:16.267Z,82.19
2018-08-13T01:49:16.262Z,84.3
2018-08-13T01:50:16.247Z,82.67
2018-08-13T01:51:16.242Z,83.34
2018-08-13T01:52:16.231Z,84.01
2018-08-13T01:53:16.489Z,84.21
2018-08-13T01:54:16.210Z,85.17
2018-08-13T01:55:16.467Z,83.83
2018-08-13T01:56:16.453Z,83.73
2018-08-13T01:57:16.439Z,83.92
2018-08-13T01:58:16.429Z,84.21
2018-08-13T01:59:16.416Z,84.11
2018-08-13T02:00:16.407Z,83.73
2018-08-13T02:01:16.496Z,84.3
2018-08-13T02:02:16.385Z,83.15
2018-08-13T02:03:16.383Z,83.34
2018-08-13T02:04:16.373Z,83.83
2018-08-13T02:05:16.357Z,82.96
2018-08-13T02:06:16.085Z,83.15
2018-08-13T02:07:16.335Z,83.25
2018-08-13T02:08:16.058Z,83.34
2018-08-13T02:09:16.052Z,82.38
2018-08-13T02:10:16.304Z,82.96
2018-08-13T02:11:16.296Z,82.96
2018-08-13T02:12:16.286Z,82.48
2018-08-13T02:13:16.008Z,83.63
2018-08-13T02:14:16.268Z,83.83
2018-08-13T02:15:16.256Z,82.57
2018-08-13T02:16:16.244Z,81.86
2018-08-13T02:17:16.234Z,82.05
2018-08-13T02:18:15.961Z,81.67
2018-08-13T02:19:16.214Z,83.59
2018-08-13T02:20:16.199Z,83.97
2018-08-13T02:21:15.931Z,82.82
2018-08-13T02:22:16.177Z,82.53
2018-08-13T02:23:15.904Z,81.67
2018-08-13T02:24:16.158Z,82.43
2018-08-13T02:25:16.146Z,82.15
2018-08-13T02:26:15.881Z,81.96
2018-08-13T02:27:16.130Z,82.53
2018-08-13T02:28:16.114Z,82.15
2018-08-13T02:29:16.120Z,81.67
2018-08-13T02:30:16.111Z,82.24
2018-08-13T02:31:16.089Z,82.05
2018-08-13T02:32:16.076Z,82.24
2018-08-13T02:33:16.076Z,83.01
2018-08-13T02:34:16.058Z,82.73
2018-08-13T02:35:16.046Z,83.59
2018-08-13T02:36:15.776Z,83.49
2018-08-13T02:37:15.755Z,84.45
2018-08-13T02:38:16.057Z,84.17
2018-08-13T02:39:16.022Z,83.49
2018-08-13T02:40:16.004Z,83.2
2018-08-13T02:41:15.982Z,84.26
2018-08-13T02:42:15.715Z,83.4
2018-08-13T02:43:15.966Z,82.73
2018-08-13T02:44:15.952Z,83.2
2018-08-13T02:45:15.939Z,84.17
2018-08-13T02:46:15.934Z,84.17
2018-08-13T02:47:15.653Z,84.74
2018-08-13T02:48:15.918Z,86.47
2018-08-13T02:49:15.898Z,85.8
2018-08-13T02:50:15.887Z,86.18
2018-08-13T02:51:15.877Z,87.53
2018-08-13T02:52:15.878Z,87.53
2018-08-13T02:53:15.596Z,86.47
2018-08-13T02:54:15.851Z,87.24
2018-08-13T02:55:15.841Z,87.72
2018-08-13T02:56:15.831Z,87.82
2018-08-13T02:57:15.813Z,88.97
2018-08-13T02:58:16.080Z,88.2
2018-08-13T02:59:15.794Z,88.59
2018-08-13T03:00:15.526Z,86.95
2018-08-13T03:01:15.507Z,90.22
2018-08-13T03:02:15.501Z,93.49
2018-08-13T03:03:15.489Z,95.21
2018-08-13T03:04:15.742Z,93.87
2018-08-13T03:05:15.740Z,93.87
2018-08-13T03:06:15.718Z,92.81
2018-08-13T03:07:15.716Z,97.24
2018-08-13T03:08:15.430Z,97.81
2018-08-13T03:09:15.424Z,99.63
2018-08-13T03:10:15.681Z,96.9
2018-08-13T03:11:15.670Z,99.15
2018-08-13T03:12:15.656Z,99.01
2018-08-13T03:13:15.646Z,99.99
2018-08-13T03:14:15.646Z,97.19
2018-08-13T03:15:15.656Z,98.53
2018-08-13T03:16:15.616Z,98.68
2018-08-13T03:17:15.611Z,98.58
2018-08-13T03:18:15.593Z,99.63
2018-08-13T03:19:15.321Z,98
2018-08-13T03:20:15.310Z,98.68
2018-08-13T03:21:15.563Z,98.34
2018-08-13T03:22:15.552Z,98.96
2018-08-13T03:23:15.540Z,98.72
2018-08-13T03:24:15.531Z,99.99
2018-08-13T03:25:15.521Z,99.99
2018-08-13T03:26:15.244Z,99.99
2018-08-13T03:27:15.502Z,99.99
2018-08-13T03:28:15.227Z,99.44
2018-08-13T03:29:15.212Z,98.19
2018-08-13T03:30:15.538Z,99.44
2018-08-13T03:31:15.511Z,98.96
2018-08-13T03:32:15.445Z,99.01
2018-08-13T03:33:15.173Z,98.72
2018-08-13T03:34:15.425Z,98.05
2018-08-13T03:35:15.150Z,96.75
2018-08-13T03:36:15.409Z,96.9
2018-08-13T03:37:15.139Z,96.22
2018-08-13T03:38:15.122Z,96.61
2018-08-13T03:39:15.374Z,97.76
2018-08-13T03:40:15.100Z,97.91
2018-08-13T03:41:15.350Z,96.42
2018-08-13T03:42:15.078Z,97.76
2018-08-13T03:43:15.331Z,98.39
2018-08-13T03:44:15.060Z,97.81
2018-08-13T03:45:15.045Z,96.94
2018-08-13T03:46:15.040Z,98.1
2018-08-13T03:47:15.292Z,98.1
2018-08-13T03:48:15.282Z,96.22
2018-08-13T03:49:15.269Z,96.32
2018-08-13T03:50:15.264Z,95.55
2018-08-13T03:51:14.985Z,97.04
2018-08-13T03:52:15.235Z,94.98
2018-08-13T03:53:15.224Z,95.26
2018-08-13T03:54:15.234Z,98.39
2018-08-13T03:55:15.215Z,97.76
2018-08-13T03:56:14.930Z,98.29
2018-08-13T03:57:14.921Z,98.91
2018-08-13T03:58:15.177Z,98.86
2018-08-13T03:59:15.162Z,99.88
2018-08-13T04:00:15.152Z,99.63
2018-08-13T04:01:15.147Z,97.71
2018-08-13T04:02:15.130Z,95.89
2018-08-13T04:03:14.859Z,95.98
2018-08-13T04:04:15.125Z,96.17
2018-08-13T04:05:14.838Z,97.42
2018-08-13T04:06:15.096Z,97.91
2018-08-13T04:07:14.819Z,97.81
2018-08-13T04:08:15.071Z,99.35
2018-08-13T04:09:15.062Z,98.96
2018-08-13T04:10:14.786Z,99.54
2018-08-13T04:11:15.040Z,99.99
2018-08-13T04:12:14.792Z,99.99
2018-08-13T04:13:15.024Z,99.92
2018-08-13T04:14:15.010Z,99.63
2018-08-13T04:15:14.739Z,99.99
2018-08-13T04:16:14.726Z,99.99
2018-08-13T04:17:14.976Z,99.99
2018-08-13T04:18:14.965Z,99.99
2018-08-13T04:19:14.959Z,99.99
2018-08-13T04:20:14.951Z,99.99
2018-08-13T04:21:14.668Z,99.99
2018-08-13T04:22:14.921Z,99.99
2018-08-13T04:23:14.652Z,99.99
2018-08-13T04:24:14.901Z,99.99
2018-08-13T04:25:14.627Z,99.99
2018-08-13T04:26:14.618Z,99.99
2018-08-13T04:27:14.878Z,99.99
2018-08-13T04:28:14.858Z,99.99
2018-08-13T04:29:14.587Z,99.99
2018-08-13T04:30:14.840Z,99.99
2018-08-13T04:31:14.835Z,99.99
2018-08-13T04:32:14.824Z,99.99
2018-08-13T04:33:14.809Z,99.99
2018-08-13T04:34:14.798Z,99.99
2018-08-13T04:35:14.834Z,99.99
2018-08-13T04:36:14.513Z,99.99
2018-08-13T04:37:14.765Z,99.99
2018-08-13T04:38:14.758Z,99.99
2018-08-13T04:39:14.685Z,99.99
2018-08-13T04:40:14.472Z,99.99
2018-08-13T04:41:14.460Z,99.99
2018-08-13T04:42:14.450Z,99.99
2018-08-13T04:43:14.438Z,99.99
2018-08-13T04:44:14.435Z,99.99
2018-08-13T04:45:14.426Z,99.99
2018-08-13T04:46:14.407Z,99.99
2018-08-13T04:47:14.398Z,99.99
2018-08-13T04:48:14.648Z,99.99
2018-08-13T04:49:14.378Z,99.99
2018-08-13T04:50:14.631Z,99.11
2018-08-13T04:51:14.619Z,99.68
2018-08-13T04:52:14.820Z,99.01
2018-08-13T04:53:14.338Z,97.96
2018-08-13T04:54:14.324Z,98.91
2018-08-13T04:55:14.582Z,99.01
2018-08-13T04:56:14.303Z,97.47
2018-08-13T04:57:14.558Z,97.28
2018-08-13T04:58:14.285Z,99.99
2018-08-13T04:59:14.274Z,99.99
2018-08-13T05:00:14.528Z,98.05
2018-08-13T05:01:14.527Z,97.47
2018-08-13T05:02:14.249Z,97.28
2018-08-13T05:03:14.497Z,97.57
2018-08-13T05:04:14.223Z,96.32
2018-08-13T05:05:14.484Z,97.86
2018-08-13T05:06:14.201Z,98.24
2018-08-13T05:07:14.602Z,99.99
2018-08-13T05:08:14.178Z,99.21
2018-08-13T05:09:14.433Z,99.99
2018-08-13T05:10:14.432Z,99.99
2018-08-13T05:11:14.418Z,99.99
2018-08-13T05:12:14.403Z,99.99
2018-08-13T05:13:14.390Z,99.99
2018-08-13T05:14:14.389Z,99.99
2018-08-13T05:15:14.368Z,99.99
2018-08-13T05:16:14.100Z,99.93
2018-08-13T05:17:14.352Z,99.99
2018-08-13T05:18:14.344Z,99.99
2018-08-13T05:19:14.330Z,99.99
2018-08-13T05:20:14.321Z,99.99
2018-08-13T05:21:14.364Z,99.99
2018-08-13T05:22:14.034Z,99.99
2018-08-13T05:23:14.295Z,99.99
2018-08-13T05:24:14.283Z,99.99
2018-08-13T05:25:14.275Z,99.99
2018-08-13T05:26:13.991Z,99.99
2018-08-13T05:27:14.248Z,99.99
2018-08-13T05:28:14.240Z,99.99
2018-08-13T05:29:14.232Z,99.99
2018-08-13T05:30:13.970Z,99.99
2018-08-13T05:31:14.213Z,99.35
2018-08-13T05:32:14.198Z,95.89
2018-08-13T05:33:13.921Z,94.73
2018-08-13T05:34:13.912Z,94.25
2018-08-13T05:35:13.901Z,93.24
2018-08-13T05:36:13.895Z,91.8
2018-08-13T05:37:14.149Z,91.99
2018-08-13T05:38:13.941Z,91.22
2018-08-13T05:39:13.864Z,91.31
2018-08-13T05:40:13.853Z,88.91
2018-08-13T05:41:14.104Z,89.82
2018-08-13T05:42:14.098Z,87.7
2018-08-13T05:43:13.823Z,89.34
2018-08-13T05:44:13.809Z,89.63
2018-08-13T05:45:13.801Z,88.85
2018-08-13T05:46:14.050Z,88.81
2018-08-13T05:47:14.045Z,88.61
2018-08-13T05:48:14.034Z,89.48
2018-08-13T05:49:14.023Z,89.39
2018-08-13T05:50:14.012Z,90.16
2018-08-13T05:51:13.744Z,90.88
2018-08-13T05:52:14.000Z,92.66
2018-08-13T05:53:13.985Z,93.62
2018-08-13T05:54:13.977Z,94.54
2018-08-13T05:55:13.966Z,95.36
2018-08-13T05:56:13.951Z,95.36
2018-08-13T05:57:13.685Z,96.42
2018-08-13T05:58:13.668Z,96.03
2018-08-13T05:59:13.929Z,96.75
2018-08-13T06:00:13.913Z,99.5
2018-08-13T06:01:13.906Z,99.99
2018-08-13T06:02:13.893Z,99.99
2018-08-13T06:03:14.194Z,99.99
2018-08-13T06:04:13.875Z,99.99
2018-08-13T06:05:13.605Z,99.99
2018-08-13T06:06:13.591Z,99.99
2018-08-13T06:07:13.846Z,99.99
2018-08-13T06:08:13.574Z,99.99
2018-08-13T06:09:13.562Z,99.99
2018-08-13T06:10:13.552Z,99.99
2018-08-13T06:11:13.878Z,99.99
2018-08-13T06:12:13.792Z,99.99
2018-08-13T06:13:13.787Z,99.99
2018-08-13T06:14:13.775Z,99.99
2018-08-13T06:15:13.768Z,99.99
2018-08-13T06:16:13.761Z,99.99
2018-08-13T06:17:13.745Z,99.99
2018-08-13T06:18:13.983Z,99.99
2018-08-13T06:19:13.734Z,99.99
2018-08-13T06:20:13.728Z,99.99
2018-08-13T06:21:13.444Z,99.99
2018-08-13T06:22:13.701Z,99.99
2018-08-13T06:23:13.426Z,99.99
2018-08-13T06:24:13.801Z,99.99
2018-08-13T06:25:13.676Z,99.99
2018-08-13T06:26:13.662Z,99.99
2018-08-13T06:27:13.651Z,99.99
2018-08-13T06:28:13.422Z,99.99
2018-08-13T06:29:13.365Z,99.99
2018-08-13T06:30:13.440Z,99.99
2018-08-13T06:31:13.608Z,99.99
2018-08-13T06:32:13.334Z,99.99
2018-08-13T06:33:13.595Z,99.99
2018-08-13T06:34:13.578Z,99.99
2018-08-13T06:35:13.309Z,99.99
2018-08-13T06:36:13.563Z,99.99
2018-08-13T06:37:13.753Z,99.99
2018-08-13T06:38:13.536Z,99.99
2018-08-13T06:39:13.736Z,99.99
2018-08-13T06:40:13.519Z,99.99
2018-08-13T06:41:13.559Z,99.99
2018-08-13T06:42:13.234Z,99.99
2018-08-13T06:43:13.227Z,99.99
2018-08-13T06:44:13.479Z,99.99
2018-08-13T06:45:13.469Z,99.99
2018-08-13T06:46:13.465Z,99.99
2018-08-13T06:47:13.586Z,99.99
2018-08-13T06:48:13.439Z,99.99
2018-08-13T06:49:13.164Z,99.99
2018-08-13T06:50:13.155Z,99.99
2018-08-13T06:51:13.412Z,99.99
2018-08-13T06:52:13.404Z,99.99
2018-08-13T06:53:13.397Z,99.99
2018-08-13T06:54:13.118Z,99.99
2018-08-13T06:55:13.378Z,99.99
2018-08-13T06:56:13.096Z,99.99
2018-08-13T06:57:13.355Z,99.99
2018-08-13T06:58:13.081Z,99.99
2018-08-13T06:59:13.337Z,99.99
2018-08-13T07:00:13.057Z,99.99
2018-08-13T07:01:13.048Z,99.99
2018-08-13T07:02:13.037Z,94.49
2018-08-13T07:03:13.312Z,88.04
2018-08-13T07:04:13.290Z,85.91
2018-08-13T07:05:13.011Z,81.45
2018-08-13T07:06:13.071Z,78.94
2018-08-13T07:07:12.989Z,75.48
2018-08-13T07:08:12.977Z,75.57
2018-08-13T07:09:12.963Z,73.65
2018-08-13T07:10:13.215Z,72.94
2018-08-13T07:11:13.233Z,72.65
2018-08-13T07:12:13.198Z,71.4
2018-08-13T07:13:13.184Z,71.11
2018-08-13T07:14:13.191Z,71.3
2018-08-13T07:15:13.170Z,68.03
2018-08-13T07:16:13.157Z,66.97
2018-08-13T07:17:13.147Z,64.28
2018-08-13T07:18:13.136Z,58.02
2018-08-13T07:19:13.132Z,61.58
2018-08-13T07:20:12.852Z,51.09
2018-08-13T07:21:13.118Z,54.65
2018-08-13T07:22:13.189Z,56.87
2018-08-13T07:23:13.081Z,55.43
2018-08-13T07:24:13.077Z,53.31
2018-08-13T07:25:13.065Z,48.59
2018-08-13T07:26:13.057Z,45.99
2018-08-13T07:27:12.778Z,48.79
2018-08-13T07:28:13.050Z,48.49
2018-08-13T07:29:12.755Z,47.72
2018-08-13T07:30:13.018Z,49
2018-08-13T07:31:13.001Z,50.93
2018-08-13T07:32:12.991Z,52.08
2018-08-13T07:33:12.718Z,50.54
2018-08-13T07:34:12.710Z,52.56
2018-08-13T07:35:12.963Z,53.53
2018-08-13T07:36:12.687Z,54.1
2018-08-13T07:37:12.943Z,50.57
2018-08-13T07:38:12.675Z,53.81
2018-08-13T07:39:12.700Z,54.42
2018-08-13T07:40:12.670Z,55
2018-08-13T07:41:12.642Z,56.15
2018-08-13T07:42:12.895Z,53.74
2018-08-13T07:43:12.890Z,52.3
2018-08-13T07:44:12.877Z,54.03
2018-08-13T07:45:12.606Z,59.33
2018-08-13T07:46:12.859Z,55.29
2018-08-13T07:47:12.589Z,57.4
2018-08-13T07:48:12.575Z,55.38
2018-08-13T07:49:12.829Z,55.55
2018-08-13T07:50:12.821Z,54.2
2018-08-13T07:51:12.559Z,56.54
2018-08-13T07:52:12.809Z,57.5
2018-08-13T07:53:12.806Z,55.77
2018-08-13T07:54:12.784Z,53.36
2018-08-13T07:55:12.511Z,56.15
2018-08-13T07:56:12.549Z,55.67
2018-08-13T07:57:12.491Z,57.79
2018-08-13T07:58:12.482Z,58.37
2018-08-13T07:59:12.475Z,58.37
2018-08-13T08:00:12.729Z,60.68
2018-08-13T08:01:12.461Z,61.83
2018-08-13T08:02:12.454Z,60.97
2018-08-13T08:03:12.704Z,58.69
2018-08-13T08:04:12.688Z,61.87
2018-08-13T08:05:12.690Z,61.96
2018-08-13T08:06:12.410Z,64.66
2018-08-13T08:07:12.669Z,64.86
2018-08-13T08:08:12.660Z,64.76
2018-08-13T08:09:12.421Z,65.72
2018-08-13T08:10:12.650Z,67.84
2018-08-13T08:11:12.365Z,67.16
2018-08-13T08:12:12.622Z,66.2
2018-08-13T08:13:12.616Z,67.74
2018-08-13T08:14:12.338Z,67.07
2018-08-13T08:15:12.594Z,63.98
2018-08-13T08:16:12.584Z,66.78
2018-08-13T08:17:12.574Z,67.36
2018-08-13T08:18:12.308Z,68.04
2018-08-13T08:19:12.562Z,65.91
2018-08-13T08:20:12.285Z,68.19
2018-08-13T08:21:12.281Z,68.8
2018-08-13T08:22:12.269Z,70.06
2018-08-13T08:23:12.523Z,67.03
2018-08-13T08:24:12.561Z,66.17
2018-08-13T08:25:12.248Z,68.23
2018-08-13T08:26:12.495Z,67.52
2018-08-13T08:27:12.488Z,67.42
2018-08-13T08:28:12.494Z,64.73
2018-08-13T08:29:12.550Z,66.46
2018-08-13T08:30:12.195Z,65.69
2018-08-13T08:31:12.190Z,66.85
2018-08-13T08:32:12.180Z,65.4
2018-08-13T08:33:12.438Z,66.07
2018-08-13T08:34:12.165Z,67.03
2018-08-13T08:35:12.151Z,63.38
2018-08-13T08:36:12.408Z,65.2
2018-08-13T08:37:12.402Z,66.46
2018-08-13T08:38:12.120Z,68.68
2018-08-13T08:39:12.425Z,70.15
2018-08-13T08:40:12.371Z,71.22
2018-08-13T08:41:12.355Z,69.06
2018-08-13T08:42:12.357Z,71.7
2018-08-13T08:43:12.076Z,70.54
2018-08-13T08:44:12.334Z,70.44
2018-08-13T08:45:12.324Z,70.92
2018-08-13T08:46:12.050Z,74.01
2018-08-13T08:47:12.043Z,75.36
2018-08-13T08:48:12.296Z,75.55
2018-08-13T08:49:12.022Z,76.8
2018-08-13T08:50:12.275Z,75.59
2018-08-13T08:51:12.006Z,74.91
2018-08-13T08:52:12.000Z,77.61
2018-08-13T08:53:11.991Z,76.65
2018-08-13T08:54:12.242Z,73.91
2018-08-13T08:55:11.972Z,76.03
2018-08-13T08:56:12.225Z,75.07
2018-08-13T08:57:11.952Z,74.97
2018-08-13T08:58:11.950Z,74.4
2018-08-13T08:59:11.934Z,75.07
2018-08-13T09:00:12.200Z,74.4
2018-08-13T09:01:12.187Z,75.16
2018-08-13T09:02:12.178Z,77.09
2018-08-13T09:03:12.166Z,75.55
2018-08-13T09:04:11.892Z,75.88
2018-08-13T09:05:12.147Z,76.07
2018-08-13T09:06:11.881Z,75.88
2018-08-13T09:07:12.132Z,77.42
2018-08-13T09:08:11.865Z,77.71
2018-08-13T09:09:12.117Z,77.42
2018-08-13T09:10:12.128Z,78.48
2018-08-13T09:11:12.096Z,80.79
2018-08-13T09:12:12.093Z,82.62
2018-08-13T09:13:11.813Z,81.47
2018-08-13T09:14:11.894Z,82.05
2018-08-13T09:15:12.066Z,81.37
2018-08-13T09:16:12.059Z,81.27
2018-08-13T09:17:11.791Z,78.86
2018-08-13T09:18:12.045Z,81.37
2018-08-13T09:19:11.841Z,80.22
2018-08-13T09:20:12.022Z,81.76
2018-08-13T09:21:11.753Z,81.47
2018-08-13T09:22:12.003Z,82.43
2018-08-13T09:23:11.993Z,81.47
2018-08-13T09:24:11.724Z,83.98
2018-08-13T09:25:11.774Z,83.69
2018-08-13T09:26:12.000Z,83.11
2018-08-13T09:27:11.964Z,83.25
2018-08-13T09:28:11.691Z,84.75
2018-08-13T09:29:11.945Z,84.07
2018-08-13T09:30:11.692Z,83.78
2018-08-13T09:31:11.927Z,83.98
2018-08-13T09:32:11.654Z,84.17
2018-08-13T09:33:11.645Z,84.27
2018-08-13T09:34:11.901Z,84.46
2018-08-13T09:35:11.626Z,83.3
2018-08-13T09:36:11.887Z,82.72
2018-08-13T09:37:11.874Z,81.18
2018-08-13T09:38:11.864Z,78.67
2018-08-13T09:39:11.593Z,80.31
2018-08-13T09:40:11.587Z,80.12
2018-08-13T09:41:11.572Z,80.79
2018-08-13T09:42:11.833Z,81.27
2018-08-13T09:43:11.558Z,79.44
2018-08-13T09:44:11.813Z,78.67
2018-08-13T09:45:11.540Z,79.06
2018-08-13T09:46:11.792Z,79.35
2018-08-13T09:47:11.786Z,78.86
2018-08-13T09:48:11.566Z,81.37
2018-08-13T09:49:11.509Z,79.68
2018-08-13T09:50:11.493Z,82.48
2018-08-13T09:51:11.751Z,82.38
2018-08-13T09:52:11.743Z,85.46
2018-08-13T09:53:11.468Z,83.92
2018-08-13T09:54:11.727Z,86.14
2018-08-13T09:55:11.450Z,85.94
2018-08-13T09:56:11.711Z,86.66
2018-08-13T09:57:11.699Z,86.96
2018-08-13T09:58:11.426Z,87.24
2018-08-13T09:59:11.416Z,88.31
2018-08-13T10:00:11.791Z,88.69
2018-08-13T10:01:11.448Z,89.07
2018-08-13T10:02:11.656Z,90.33
2018-08-13T10:03:11.654Z,87.53
2018-08-13T10:04:11.653Z,88.89
2018-08-13T10:05:11.633Z,90.95
2018-08-13T10:06:11.626Z,89.99
2018-08-13T10:07:11.357Z,89.7
2018-08-13T10:08:11.609Z,91.67
2018-08-13T10:09:11.621Z,94.19
2018-08-13T10:10:11.333Z,95.83
2018-08-13T10:11:11.327Z,92.65
2018-08-13T10:12:11.316Z,95.06
2018-08-13T10:13:11.305Z,95.73
2018-08-13T10:14:11.562Z,97.77
2018-08-13T10:15:11.554Z,99.99
2018-08-13T10:16:11.560Z,99.99
2018-08-13T10:17:11.284Z,99.99
2018-08-13T10:18:11.532Z,99.99
2018-08-13T10:19:11.529Z,99.99
2018-08-13T10:20:11.256Z,99.99
2018-08-13T10:21:11.248Z,99.99
2018-08-13T10:22:11.239Z,99.99
2018-08-13T10:23:11.505Z,99.99
2018-08-13T10:24:11.493Z,99.99
2018-08-13T10:25:11.230Z,99.99
2018-08-13T10:26:11.482Z,99.99
2018-08-13T10:27:11.476Z,99.99
2018-08-13T10:28:11.464Z,99.99
2018-08-13T10:29:11.196Z,99.99
2018-08-13T10:30:11.192Z,99.99
2018-08-13T10:31:11.457Z,99.99
2018-08-13T10:32:11.449Z,99.99
2018-08-13T10:33:11.170Z,99.99
2018-08-13T10:34:11.427Z,99.99
2018-08-13T10:35:11.430Z,99.99
2018-08-13T10:36:11.152Z,99.99
2018-08-13T10:37:11.431Z,99.99
2018-08-13T10:38:11.147Z,99.99
2018-08-13T10:39:11.478Z,99.99
2018-08-13T10:40:11.137Z,99.99
2018-08-13T10:41:11.128Z,99.99
2018-08-13T10:42:11.121Z,99.99
2018-08-13T10:43:11.113Z,99.99
2018-08-13T10:44:11.111Z,99.99
2018-08-13T10:45:11.113Z,99.99
2018-08-13T10:46:11.388Z,99.99
2018-08-13T10:47:11.094Z,99.99
2018-08-13T10:48:11.082Z,99.99
2018-08-13T10:49:11.078Z,99.99
2018-08-13T10:50:11.073Z,99.99
2018-08-13T10:51:11.331Z,99.99
2018-08-13T10:52:11.329Z,99.99
2018-08-13T10:53:11.062Z,99.99
2018-08-13T10:54:11.325Z,99.99
2018-08-13T10:55:11.319Z,99.99
2018-08-13T10:56:11.411Z,99.99
2018-08-13T10:57:11.038Z,99.99
2018-08-13T10:58:11.299Z,99.99
2018-08-13T10:59:11.299Z,99.99
2018-08-13T11:00:11.294Z,99.99
2018-08-13T11:01:11.134Z,99.99
2018-08-13T11:02:11.308Z,99.99
2018-08-13T11:03:11.326Z,99.99
2018-08-13T11:04:11.282Z,99.99
2018-08-13T11:05:11.281Z,99.99
2018-08-13T11:06:11.272Z,99.99
2018-08-13T11:07:11.010Z,99.99
2018-08-13T11:08:11.261Z,99.99
2018-08-13T11:09:10.996Z,97.91
2018-08-13T11:10:11.344Z,93.97
2018-08-13T11:11:10.989Z,98.83
2018-08-13T11:12:11.256Z,99.99
2018-08-13T11:13:11.260Z,98.25
2018-08-13T11:14:11.249Z,94.7
2018-08-13T11:15:11.245Z,94.6
2018-08-13T11:16:11.241Z,94.51
2018-08-13T11:17:10.973Z,99.7
2018-08-13T11:18:11.246Z,99.99
2018-08-13T11:19:10.968Z,99.99
2018-08-13T11:20:11.232Z,99.99
2018-08-13T11:21:11.229Z,99.99
2018-08-13T11:22:10.964Z,99.99
2018-08-13T11:23:10.965Z,99.99
2018-08-13T11:24:10.960Z,99.99
2018-08-13T11:25:10.958Z,99.99
2018-08-13T11:26:11.271Z,99.99
2018-08-13T11:27:11.215Z,96.64
2018-08-13T11:28:11.214Z,95.33
2018-08-13T11:29:11.215Z,96.4
2018-08-13T11:30:11.220Z,97.32
2018-08-13T11:31:10.961Z,99.99
2018-08-13T11:32:11.400Z,99.99
2018-08-13T11:33:11.207Z,99.99
2018-08-13T11:34:11.199Z,99.99
2018-08-13T11:35:11.236Z,99.99
2018-08-13T11:36:10.924Z,99.99
2018-08-13T11:37:10.924Z,99.99
2018-08-13T11:38:11.191Z,99.99
2018-08-13T11:39:10.919Z,99.99
2018-08-13T11:40:11.181Z,99.99
2018-08-13T11:41:11.184Z,99.99
2018-08-13T11:42:11.186Z,99.99
2018-08-13T11:43:11.165Z,99.99
2018-08-13T11:44:11.159Z,99.99
2018-08-13T11:45:10.905Z,99.99
2018-08-13T11:46:10.902Z,99.99
2018-08-13T11:47:11.150Z,99.99
2018-08-13T11:48:10.881Z,99.99
2018-08-13T11:49:10.880Z,99.99
2018-08-13T11:50:11.137Z,99.99
2018-08-13T11:51:11.132Z,99.99
2018-08-13T11:52:11.129Z,99.99
2018-08-13T11:53:10.862Z,99.99
2018-08-13T11:54:11.116Z,99.99
2018-08-13T11:55:11.114Z,99.99
2018-08-13T11:56:10.845Z,99.99
2018-08-13T11:57:11.102Z,99.99
2018-08-13T11:58:10.835Z,99.99
2018-08-13T11:59:10.828Z,99.99
2018-08-13T12:00:10.832Z,99.99
2018-08-13T12:01:11.221Z,99.99
2018-08-13T12:02:10.848Z,99.99
2018-08-13T12:03:10.808Z,99.99
2018-08-13T12:04:11.063Z,99.99
2018-08-13T12:05:11.056Z,99.99
2018-08-13T12:06:11.051Z,99.99
2018-08-13T12:07:11.044Z,99.99
2018-08-13T12:08:11.038Z,99.99
2018-08-13T12:09:10.767Z,99.99
2018-08-13T12:10:11.022Z,99.99
2018-08-13T12:11:11.023Z,99.99
2018-08-13T12:12:10.751Z,99.99
2018-08-13T12:13:11.009Z,99.99
2018-08-13T12:14:11.205Z,99.99
2018-08-13T12:15:10.729Z,99.99
2018-08-13T12:16:10.721Z,99.99
2018-08-13T12:17:10.991Z,99.99
2018-08-13T12:18:10.974Z,99.99
2018-08-13T12:19:10.967Z,99.99
2018-08-13T12:20:10.698Z,99.99
2018-08-13T12:21:10.953Z,99.99
2018-08-13T12:22:10.943Z,99.99
2018-08-13T12:23:10.941Z,99.99
2018-08-13T12:24:10.946Z,99.99
2018-08-13T12:25:10.930Z,99.99
2018-08-13T12:26:10.922Z,99.99
2018-08-13T12:27:10.651Z,99.99
2018-08-13T12:28:10.917Z,99.99
2018-08-13T12:29:10.904Z,99.99
2018-08-13T12:30:10.897Z,99.99
2018-08-13T12:31:10.892Z,99.99
2018-08-13T12:32:10.625Z,99.99
2018-08-13T12:33:10.886Z,99.99
2018-08-13T12:34:10.875Z,99.99
2018-08-13T12:35:10.615Z,99.99
2018-08-13T12:36:10.599Z,99.99
2018-08-13T12:37:10.596Z,99.99
2018-08-13T12:38:10.586Z,99.99
2018-08-13T12:39:10.845Z,99.99
2018-08-13T12:40:11.041Z,99.99
2018-08-13T12:41:10.585Z,99.99
2018-08-13T12:42:10.842Z,99.99
2018-08-13T12:43:10.831Z,99.99
2018-08-13T12:44:10.823Z,99.99
2018-08-13T12:45:10.552Z,99.99
2018-08-13T12:46:10.806Z,99.99
2018-08-13T12:47:10.552Z,99.99
2018-08-13T12:48:10.538Z,99.99
2018-08-13T12:49:10.533Z,99.99
2018-08-13T12:50:10.788Z,99.99
2018-08-13T12:51:10.589Z,99.99
2018-08-13T12:52:10.778Z,99.99
2018-08-13T12:53:10.508Z,99.99
2018-08-13T12:54:10.502Z,99.99